Weather reports worldwide

Advertisment
Ferrara, Italy (16133): temperature & dewpoint: 13.03.2019 10:00:00 - 19.03.2019 10:00:00 (CET)Ferrara, Italy (16133): wind speed: 13.03.2019 10:00:00 - 19.03.2019 10:00:00 (CET)Ferrara, Italy (16133): wind direction: 13.03.2019 10:00:00 - 19.03.2019 10:00:00 (CET)Ferrara, Italy (16133): reduced air pressure: 13.03.2019 10:00:00 - 19.03.2019 10:00:00 (CET)Ferrara, Italy (16133): precipitation: 13.03.2019 10:00:00 - 19.03.2019 10:00:00 (CET)
Date & Time tt [°C] td [°C] ff [km/h] ff [kn] dd ppp [hPa] rr [mm]
19.03.2019 10:00:00 - - - - - - -
19.03.2019 09:00:00 8,5 1,2 14 7 NNE 1022,6 0,0
19.03.2019 08:00:00 6,1 3,2 - - - 1021,8 -
19.03.2019 07:00:00 7,1 1,0 7 4 N 1021,5 0,0
19.03.2019 06:00:00 6,9 1,6 9 5 NNW 1021,0 0,0
19.03.2019 05:00:00 6,9 2,9 - - - 1020,5 -
19.03.2019 04:00:00 7,2 1,3 9 5 NNW 1020,1 0,0
19.03.2019 03:00:00 7,1 1,8 10 5 NNW 1019,9 0,0
19.03.2019 02:00:00 6,6 3,5 - - - 1020,8 -
19.03.2019 01:00:00 6,7 2,4 8 4 N 1020,3 0,0
19.03.2019 00:00:00 7,2 3,1 7 4 N 1020,2 0,0
18.03.2019 23:00:00 7,6 4,9 - - - 1020,1 -
18.03.2019 22:00:00 7,7 3,9 13 7 ENE 1019,7 0,0
18.03.2019 21:00:00 8,1 3,4 15 8 ENE 1019,1 0,0
18.03.2019 20:00:00 8,2 3,4 - - - 1018,5 -
18.03.2019 19:00:00 8,5 2,5 16 8 E 1018,1 0,0
18.03.2019 18:00:00 8,5 2,3 16 9 E 1017,7 0,0
18.03.2019 17:00:00 9,5 3,8 - - - 1016,5 -
18.03.2019 16:00:00 9,7 2,5 22 12 E 1016,1 0,0
18.03.2019 15:00:00 9,9 3,4 16 9 E 1015,8 0,0
18.03.2019 14:00:00 9,9 6,4 - - - 1015,8 -
18.03.2019 13:00:00 9,9 4,3 22 12 NE 1015,3 0,0
18.03.2019 12:00:00 9,3 5,3 22 12 NE 1015,3 0,0
18.03.2019 11:00:00 9,8 8,2 - - - 1013,4 -
18.03.2019 10:00:00 10,5 7,0 10 5 WNW 1013,4 0,0
18.03.2019 09:00:00 9,0 7,6 11 6 W 1012,5 0,2
18.03.2019 08:00:00 10,3 7,9 - - - 1010,7 -
18.03.2019 07:00:00 11,0 7,1 16 9 W 1010,4 0,0
18.03.2019 06:00:00 11,5 5,8 10 6 S 1008,9 0,0
18.03.2019 05:00:00 8,2 6,3 - - - 1009,6 -
18.03.2019 04:00:00 10,7 5,0 13 7 S 1009,0 0,0
18.03.2019 03:00:00 10,2 5,2 10 6 SSW 1009,4 0,0
18.03.2019 02:00:00 7,6 6,0 - - - 1010,9 -
18.03.2019 01:00:00 9,9 6,2 6 4 SSW 1010,5 0,0
18.03.2019 00:00:00 10,4 7,6 8 4 SW 1010,3 0,0
17.03.2019 23:00:00 10,1 8,5 - - - 1011,3 -
17.03.2019 22:00:00 11,1 8,5 5 3 S 1010,7 0,0
17.03.2019 21:00:00 12,0 9,4 10 6 ESE 1010,7 0,0
17.03.2019 20:00:00 13,8 7,7 - - - 1012,0 -
17.03.2019 19:00:00 14,4 7,2 11 6 SE 1011,5 0,0
17.03.2019 18:00:00 15,4 7,4 14 8 ESE 1011,6 0,0
17.03.2019 17:00:00 17,2 7,2 - - - 1012,7 -
17.03.2019 16:00:00 18,0 5,9 7 4 WNW 1012,1 0,0
17.03.2019 15:00:00 18,6 6,1 6 4 W 1012,7 0,0
17.03.2019 14:00:00 17,2 8,8 - - - 1015,1 -
17.03.2019 13:00:00 17,8 6,3 7 4 SW 1014,5 0,0
17.03.2019 12:00:00 16,4 8,6 9 5 SW 1015,4 0,0
17.03.2019 11:00:00 11,7 10,1 4 2 ENE 1017,0 -
17.03.2019 10:00:00 12,9 9,2 4 2 E 1016,5 0,0
17.03.2019 09:00:00 10,8 9,7 6 3 NE 1016,6 0,0
17.03.2019 08:00:00 7,4 5,8 - - - 1016,5 -
17.03.2019 07:00:00 8,2 7,9 3 2 N 1016,1 0,0
17.03.2019 06:00:00 7,8 7,5 3 2 S 1016,0 0,0
17.03.2019 05:00:00 7,0 5,5 - - - 1015,8 -
17.03.2019 04:00:00 7,3 7,0 6 3 NE 1015,4 0,0
17.03.2019 03:00:00 7,4 7,0 12 7 NE 1015,5 0,0
17.03.2019 02:00:00 8,6 7,0 - - - 1016,1 -
17.03.2019 01:00:00 9,1 7,1 13 7 ENE 1015,7 0,0
17.03.2019 00:00:00 9,8 7,2 7 4 ENE 1015,8 0,0
16.03.2019 23:00:00 10,6 7,6 - - - 1015,6 -
16.03.2019 22:00:00 11,4 6,9 8 4 E 1015,2 0,0
16.03.2019 21:00:00 11,8 7,1 10 5 E 1014,8 0,0
16.03.2019 20:00:00 13,3 7,5 - - - 1014,5 -
16.03.2019 19:00:00 13,8 7,8 11 6 E 1014,2 0,0
16.03.2019 18:00:00 15,9 9,1 13 7 E 1013,6 0,0
16.03.2019 17:00:00 19,9 7,5 - - - 1013,5 -
16.03.2019 16:00:00 20,6 5,0 4 2 W 1013,1 0,0
16.03.2019 15:00:00 19,6 5,6 4 2 SW 1013,5 0,0
16.03.2019 14:00:00 17,9 8,1 - - - 1015,1 -
16.03.2019 13:00:00 17,8 5,4 9 5 WNW 1014,5 0,0
16.03.2019 12:00:00 16,7 5,6 8 4 W 1015,0 0,0
16.03.2019 11:00:00 8,7 7,1 - - - 1015,4 -
16.03.2019 10:00:00 11,6 8,3 - - - 1014,9 -
16.03.2019 09:00:00 9,4 7,7 4 2 ESE 1014,6 0,0
16.03.2019 08:00:00 4,2 2,7 0 0 N 1013,8 -
16.03.2019 07:00:00 6,8 6,4 8 4 NE 1013,5 0,0
16.03.2019 06:00:00 8,4 7,3 3 2 NNE 1012,9 0,0
16.03.2019 05:00:00 7,4 5,8 - - - 1012,9 -
16.03.2019 04:00:00 7,9 6,5 5 3 NE 1012,5 0,0
16.03.2019 03:00:00 7,6 5,7 8 4 NE 1012,6 0,0
16.03.2019 02:00:00 8,0 6,4 - - - 1013,1 -
16.03.2019 01:00:00 9,1 6,7 6 3 NE 1012,7 0,0
16.03.2019 00:00:00 9,1 6,9 4 2 ENE 1012,7 0,0
15.03.2019 23:00:00 8,4 6,8 - - - 1012,7 -
15.03.2019 22:00:00 8,5 6,6 10 5 ENE 1012,3 0,0
15.03.2019 21:00:00 9,2 6,5 10 6 ENE 1011,8 0,0
15.03.2019 20:00:00 12,5 6,5 - - - 1011,2 -
15.03.2019 19:00:00 12,5 7,0 11 6 E 1010,8 0,0
15.03.2019 18:00:00 15,3 7,8 14 7 ESE 1010,3 0,0
15.03.2019 17:00:00 18,5 4,2 5 3 S 1010,4 -
15.03.2019 16:00:00 19,6 1,5 5 3 W 1009,8 0,0
15.03.2019 15:00:00 18,9 1,4 8 4 W 1009,9 0,0
15.03.2019 14:00:00 16,9 5,7 9 5 W 1011,3 -
15.03.2019 13:00:00 16,3 2,0 12 7 WNW 1010,7 0,0
15.03.2019 12:00:00 15,3 1,4 13 7 W 1011,0 0,0
15.03.2019 11:00:00 9,1 4,1 5 3 WNW 1012,0 -
15.03.2019 10:00:00 10,7 2,3 4 2 WSW 1011,6 0,0
15.03.2019 09:00:00 9,3 1,0 4 2 SW 1011,1 0,0
15.03.2019 08:00:00 1,7 0,2 2 1 WSW 1010,6 -
15.03.2019 07:00:00 5,0 3,8 5 3 NE 1010,2 0,0
15.03.2019 06:00:00 4,8 3,6 4 2 SW 1009,5 0,0
15.03.2019 05:00:00 3,3 1,5 - - - 1009,2 -
15.03.2019 04:00:00 5,6 4,4 6 3 N 1008,9 0,0
15.03.2019 03:00:00 5,4 0,8 6 3 WSW 1008,5 0,0
15.03.2019 02:00:00 6,3 0,1 - - - 1008,5 -
15.03.2019 01:00:00 9,0 -0,6 8 4 NW 1008,1 0,0
15.03.2019 00:00:00 9,2 -1,2 15 8 WNW 1007,4 0,0
14.03.2019 23:00:00 8,4 2,1 5 3 SW 1008,7 -
14.03.2019 22:00:00 10,4 0,4 4 2 WSW 1008,3 0,0
14.03.2019 21:00:00 11,0 1,0 6 4 SSW 1008,7 0,0
14.03.2019 20:00:00 11,0 3,0 - - - 1009,9 -
14.03.2019 19:00:00 12,7 0,8 5 3 SSE 1009,5 0,0
14.03.2019 18:00:00 13,2 0,9 8 4 S 1009,5 0,0
14.03.2019 17:00:00 13,7 1,6 - - - 1011,2 -
14.03.2019 16:00:00 14,1 -0,4 5 3 WSW 1010,5 0,0
14.03.2019 15:00:00 14,2 -0,7 12 6 W 1011,3 0,0
14.03.2019 14:00:00 12,7 6,0 - - - 1014,3 -
14.03.2019 13:00:00 12,1 2,5 13 7 WNW 1013,6 0,0
14.03.2019 12:00:00 10,3 4,4 9 5 W 1014,5 0,0
14.03.2019 11:00:00 4,4 3,0 - - - 1016,1 -
14.03.2019 10:00:00 5,5 5,2 6 4 WSW 1015,5 0,0
14.03.2019 09:00:00 2,3 2,2 6 3 W 1015,9 0,2
14.03.2019 08:00:00 -0,6 -2,1 4 2 WSW 1016,3 -
14.03.2019 07:00:00 -0,6 -0,6 5 3 W 1015,7 0,0
14.03.2019 06:00:00 -0,6 -0,6 - - - 1015,6 0,0
14.03.2019 05:00:00 0,2 -1,3 4 2 NNW 1016,1 -
14.03.2019 04:00:00 1,4 1,3 9 5 NW 1015,7 0,0
14.03.2019 03:00:00 2,6 2,2 7 4 W 1015,2 0,0
14.03.2019 02:00:00 2,9 1,4 0 0 N 1015,5 -
14.03.2019 01:00:00 2,7 1,2 0 0 N 1015,3 0,0
14.03.2019 00:00:00 6,2 4,5 0 0 N 1014,8 0,0
13.03.2019 23:00:00 5,2 3,7 0 0 N 1014,5 -
13.03.2019 22:00:00 6,8 4,6 3 2 NW 1014,1 0,0
13.03.2019 21:00:00 7,1 4,7 5 3 N 1013,8 0,0
13.03.2019 20:00:00 6,6 5,1 - - - 1013,5 -
13.03.2019 19:00:00 6,9 5,4 4 2 E 1012,9 0,0
13.03.2019 18:00:00 7,3 5,7 6 4 NE 1012,9 0,2
13.03.2019 17:00:00 7,3 5,4 - - - 1012,9 -
13.03.2019 16:00:00 7,3 4,4 6 4 E 1012,4 0,6
13.03.2019 15:00:00 - - - - - - -
13.03.2019 14:00:00 9,6 0,1 - - - 1013,8 -
13.03.2019 13:00:00 - - - - - - -
13.03.2019 12:00:00 9,9 -3,4 10 5 NNE 1013,7 0,0
13.03.2019 11:00:00 8,6 -0,3 - - - 1014,6 -
13.03.2019 10:00:00 9,3 -3,0 3 1 ESE 1014,2 0,0

tt = temperature
td = dewpoint
ff = wind speed
dd = wind direction
ppp = reduced air pressure
rr = precipitation

Next stations